Time;durP1;ratioP1;P1;durP2;ratioP2;P2;SDS_P1;SDS_P2;PMS_P1;PMS_P2;Temp;Humidity;BMP_temperature;BMP_pressure;BME280_temperature;BME280_humidity;BME280_pressure;Samples;Min_cycle;Max_cycle;Signal;HPM_P1;HPM_P2
2022/03/29 00:00:56;;;;;;;21.33;12.98;;;;;;;10.58;47.40;95395.22;5011282;28;20045;-61
2022/03/29 00:03:22;;;;;;;17.42;12.40;;;;;;;10.36;48.43;95374.97;5011416;28;20040;-61
2022/03/29 00:05:47;;;;;;;18.98;13.10;;;;;;;10.40;48.09;95373.88;5010989;28;20030;-61
2022/03/29 00:08:13;;;;;;;17.33;12.77;;;;;;;10.43;48.60;95392.59;5011207;28;20033;-63
2022/03/29 00:10:38;;;;;;;21.15;13.18;;;;;;;10.44;47.84;95396.81;5010760;28;20029;-62
2022/03/29 00:13:04;;;;;;;18.88;12.52;;;;;;;10.53;48.32;95380.00;5010873;28;20036;-61
2022/03/29 00:15:29;;;;;;;22.20;14.18;;;;;;;10.60;47.31;95389.03;5011119;28;20167;-61
2022/03/29 00:17:55;;;;;;;19.52;13.43;;;;;;;10.71;47.46;95385.00;5009598;28;20457;-61
2022/03/29 00:20:22;;;;;;;18.25;13.88;;;;;;;10.71;48.07;95385.00;5009837;28;20036;-61
2022/03/29 00:22:47;;;;;;;19.00;12.57;;;;;;;10.72;47.28;95377.19;5010756;28;20382;-64
2022/03/29 00:25:14;;;;;;;17.80;13.48;;;;;;;10.66;47.77;95368.06;5010557;28;20022;-61
2022/03/29 00:27:40;;;;;;;18.52;13.85;;;;;;;10.69;47.45;95356.75;5010652;28;20404;-64
2022/03/29 00:30:07;;;;;;;18.42;12.70;;;;;;;10.76;47.42;95368.38;5010743;28;20165;-61
2022/03/29 00:32:34;;;;;;;18.85;12.50;;;;;;;10.18;47.28;95271.13;5010544;28;20029;-62
2022/03/29 00:34:59;;;;;;;19.60;13.73;;;;;;;10.85;47.61;95367.00;5010330;28;20018;-62
2022/03/29 00:37:25;;;;;;;17.50;12.40;;;;;;;11.02;46.82;95364.25;5010635;28;20029;-61
2022/03/29 00:39:50;;;;;;;24.27;13.23;;;;;;;11.14;46.27;95362.69;5010626;28;20030;-62
2022/03/29 00:42:16;;;;;;;21.67;13.85;;;;;;;11.08;46.49;95360.47;5010523;28;20413;-61
2022/03/29 00:44:42;;;;;;;18.77;13.10;;;;;;;10.98;46.28;95349.84;5009950;28;20472;-63
2022/03/29 00:47:07;;;;;;;18.70;12.88;;;;;;;10.81;47.25;95344.88;5010430;28;20105;-61
2022/03/29 00:49:33;;;;;;;18.52;13.30;;;;;;;10.81;46.96;95358.59;5008825;28;20057;-61
2022/03/29 00:52:01;;;;;;;18.92;13.00;;;;;;;10.75;47.17;95351.22;5009190;28;20050;-61
2022/03/29 00:54:29;;;;;;;18.48;12.68;;;;;;;10.72;47.36;95345.41;5009993;28;20034;-61
2022/03/29 00:56:59;;;;;;;17.77;13.23;;;;;;;10.62;47.59;95342.53;5010016;28;20022;-62
2022/03/29 00:59:25;;;;;;;20.70;14.48;;;;;;;10.62;47.72;95335.63;5009861;28;20026;-60
2022/03/29 01:01:51;;;;;;;19.08;12.90;;;;;;;10.55;48.20;95318.03;5009887;28;20497;-61
2022/03/29 01:04:17;;;;;;;18.63;13.30;;;;;;;10.58;47.63;95328.16;5009415;28;20724;-62
2022/03/29 01:06:44;;;;;;;17.35;13.32;;;;;;;10.56;47.81;95333.41;5009585;28;20026;-61
2022/03/29 01:09:11;;;;;;;18.20;13.48;;;;;;;10.58;48.38;95335.91;5009649;28;20037;-60
2022/03/29 01:11:38;;;;;;;20.55;12.35;;;;;;;10.43;48.02;95320.41;5010176;28;20022;-62
2022/03/29 01:14:04;;;;;;;18.90;12.45;;;;;;;10.41;48.89;95318.81;5008836;28;20096;-62
2022/03/29 01:19:20;;;;;;;18.25;13.50;;;;;;;10.22;49.23;95311.28;5009982;28;20033;-62
2022/03/29 01:21:58;;;;;;;17.85;12.73;;;;;;;10.07;49.95;95305.25;5009157;28;20026;-60
2022/03/29 01:24:27;;;;;;;20.23;13.18;;;;;;;10.03;50.07;95301.19;4990400;28;20120;-59
2022/03/29 01:26:57;;;;;;;24.55;13.70;;;;;;;10.06;50.19;95306.16;4990373;28;20109;-61
2022/03/29 01:29:22;;;;;;;22.45;13.32;;;;;;;9.85;49.99;95264.41;4989882;28;20477;-61
2022/03/29 01:31:49;;;;;;;16.90;12.90;;;;;;;10.17;49.71;95300.41;4990286;28;20060;-61
2022/03/29 01:34:17;;;;;;;20.00;13.75;;;;;;;9.99;49.90;95284.25;4989891;28;20455;-60
2022/03/29 01:36:42;;;;;;;24.25;14.05;;;;;;;9.90;50.43;95280.44;4990342;28;20081;-61
2022/03/29 01:39:08;;;;;;;17.35;12.88;;;;;;;9.98;50.94;95292.88;4990031;28;20065;-61
2022/03/29 01:41:33;;;;;;;21.33;13.73;;;;;;;10.01;50.34;95287.56;4995110;28;20104;-61
2022/03/29 01:43:59;;;;;;;21.70;12.85;;;;;;;9.98;50.66;95285.97;5009731;28;20501;-61
2022/03/29 01:46:25;;;;;;;22.55;13.13;;;;;;;9.79;50.87;95270.75;5009057;28;20025;-62
2022/03/29 01:48:51;;;;;;;17.73;13.43;;;;;;;9.75;50.94;95266.66;5009438;28;20026;-62
2022/03/29 01:51:17;;;;;;;20.27;13.50;;;;;;;9.83;51.69;95279.94;5007910;28;20588;-61
2022/03/29 01:53:46;;;;;;;19.20;13.18;;;;;;;9.70;51.25;95264.34;5009757;28;20030;-60
2022/03/29 01:56:11;;;;;;;21.92;15.25;;;;;;;9.71;52.09;95280.63;5009453;28;20497;-62
2022/03/29 01:58:37;;;;;;;18.33;13.38;;;;;;;9.59;52.44;95276.97;5009010;28;20036;-62
2022/03/29 02:01:03;;;;;;;19.00;13.70;;;;;;;9.52;52.60;95270.50;5009063;28;20399;-64
2022/03/29 02:03:28;;;;;;;21.42;14.05;;;;;;;9.47;52.63;95263.03;5008708;28;20033;-63
2022/03/29 02:05:54;;;;;;;21.33;15.68;;;;;;;9.10;52.92;95215.31;5008748;28;20070;-64
2022/03/29 02:08:20;;;;;;;22.98;14.75;;;;;;;9.34;53.37;95268.00;5008711;28;20088;-61
2022/03/29 02:10:48;;;;;;;23.38;13.40;;;;;;;9.30;53.30;95253.66;5008826;28;20034;-64
2022/03/29 02:13:14;;;;;;;20.83;13.45;;;;;;;9.06;53.25;95222.38;5008733;28;20504;-62
2022/03/29 02:15:40;;;;;;;22.00;13.15;;;;;;;9.24;53.47;95256.56;5008821;28;20030;-61
2022/03/29 02:18:06;;;;;;;17.20;13.48;;;;;;;9.15;53.58;95251.91;5008977;28;20025;-65
2022/03/29 02:20:32;;;;;;;19.48;13.93;;;;;;;9.01;54.07;95240.63;5007985;28;20034;-61
2022/03/29 02:23:06;;;;;;;18.17;13.52;;;;;;;9.05;53.81;95243.88;5008714;28;20412;-61
2022/03/29 02:25:32;;;;;;;20.80;13.40;;;;;;;8.83;53.96;95211.56;5008612;28;20082;-62
2022/03/29 02:27:58;;;;;;;20.88;13.98;;;;;;;9.01;54.53;95242.38;5008728;28;20034;-62
2022/03/29 02:30:24;;;;;;;18.80;14.38;;;;;;;8.77;54.10;95208.47;5008615;28;20405;-61
2022/03/29 02:32:50;;;;;;;19.67;13.02;;;;;;;8.98;54.26;95234.81;5008345;28;20076;-62
2022/03/29 02:35:15;;;;;;;20.98;14.13;;;;;;;8.95;54.52;95235.81;5008589;28;20030;-61
2022/03/29 02:37:41;;;;;;;20.58;14.70;;;;;;;8.93;55.19;95236.78;5008683;28;20033;-61
2022/03/29 02:40:09;;;;;;;20.50;14.30;;;;;;;8.93;54.98;95240.19;5008114;28;20075;-62
2022/03/29 02:42:45;;;;;;;21.20;13.65;;;;;;;8.87;54.77;95231.97;5008773;28;20065;-62
2022/03/29 02:45:15;;;;;;;20.15;15.15;;;;;;;8.82;54.86;95230.50;5007962;28;20029;-62
2022/03/29 02:47:46;;;;;;;24.30;16.25;;;;;;;8.83;55.12;95233.88;5008166;28;20034;-60
2022/03/29 02:50:13;;;;;;;19.27;14.70;;;;;;;8.96;54.98;95234.88;5008413;28;20116;-61
2022/03/29 02:52:43;;;;;;;20.65;14.70;;;;;;;9.08;54.63;95235.16;5008385;28;20131;-63
2022/03/29 02:55:09;;;;;;;19.40;13.77;;;;;;;9.08;54.63;95225.69;5008431;28;20026;-63
2022/03/29 02:57:34;;;;;;;24.60;14.73;;;;;;;8.95;54.90;95222.97;5007746;28;20053;-61
2022/03/29 03:00:01;;;;;;;25.70;16.17;;;;;;;8.94;54.86;95233.31;5008317;28;20030;-63
2022/03/29 03:02:26;;;;;;;20.38;15.57;;;;;;;8.78;55.35;95215.28;5008048;28;20034;-62
2022/03/29 03:04:51;;;;;;;21.17;15.95;;;;;;;8.87;55.21;95239.69;5008426;28;20076;-61
2022/03/29 03:07:17;;;;;;;24.67;16.08;;;;;;;8.82;55.58;95229.63;5008279;28;20032;-61
2022/03/29 03:09:43;;;;;;;29.05;17.58;;;;;;;8.76;55.82;95229.97;5007843;28;20033;-62
2022/03/29 03:12:09;;;;;;;20.52;15.07;;;;;;;8.70;55.77;95230.28;5008288;28;20113;-61
2022/03/29 03:14:35;;;;;;;28.05;15.75;;;;;;;8.60;56.24;95225.63;5008240;28;20030;-60
2022/03/29 03:17:00;;;;;;;27.15;16.08;;;;;;;8.60;56.14;95232.50;5010882;28;20025;-60
2022/03/29 03:19:25;;;;;;;28.85;16.60;;;;;;;8.33;56.28;95186.75;5011674;28;20038;-61
2022/03/29 03:21:51;;;;;;;30.45;17.52;;;;;;;8.54;56.65;95225.09;5011283;28;20036;-61
2022/03/29 03:24:17;;;;;;;25.52;16.55;;;;;;;8.32;56.74;95185.06;5012049;28;20490;-64
2022/03/29 03:26:42;;;;;;;28.65;17.00;;;;;;;8.55;56.51;95232.75;5012267;28;20054;-59
2022/03/29 03:29:08;;;;;;;22.60;16.75;;;;;;;8.56;56.45;95228.41;5012132;28;20461;-62
2022/03/29 03:31:34;;;;;;;20.38;16.42;;;;;;;8.62;56.40;95217.81;5011435;28;20652;-60
2022/03/29 03:33:59;;;;;;;27.60;16.73;;;;;;;8.68;56.58;95216.69;5011448;28;20108;-61
2022/03/29 03:36:24;;;;;;;25.00;16.98;;;;;;;8.73;56.39;95219.84;5011962;28;20041;-60
2022/03/29 03:38:50;;;;;;;25.95;18.13;;;;;;;8.73;56.08;95219.84;5011774;28;20396;-59
2022/03/29 03:41:15;;;;;;;26.05;17.98;;;;;;;8.64;56.71;95226.28;5011737;28;20082;-62
2022/03/29 03:43:41;;;;;;;26.00;18.15;;;;;;;8.50;56.49;95213.34;5011565;28;20065;-62
2022/03/29 03:46:06;;;;;;;24.13;18.02;;;;;;;8.16;57.02;95185.00;5010981;28;20022;-63
2022/03/29 03:48:31;;;;;;;23.13;17.75;;;;;;;8.42;57.14;95224.78;5008534;28;20038;-61
2022/03/29 03:50:57;;;;;;;24.73;17.63;;;;;;;8.32;57.35;95215.91;5007561;28;20153;-62
2022/03/29 03:53:23;;;;;;;30.65;19.90;;;;;;;8.32;57.34;95226.19;5005986;28;20057;-63
2022/03/29 03:55:48;;;;;;;29.27;18.45;;;;;;;8.32;57.67;95225.34;5011574;28;20065;-62
2022/03/29 03:58:14;;;;;;;29.27;18.02;;;;;;;7.70;57.56;95135.97;5010726;28;20181;-61
2022/03/29 04:00:40;;;;;;;25.23;17.83;;;;;;;8.24;57.86;95224.00;5011238;28;20048;-62
2022/03/29 04:03:05;;;;;;;25.42;17.77;;;;;;;8.15;58.27;95224.47;4996165;28;20038;-63
2022/03/29 04:05:33;;;;;;;31.95;20.20;;;;;;;7.60;58.36;95134.78;4993753;28;20026;-65
2022/03/29 04:07:58;;;;;;;28.95;19.10;;;;;;;7.77;58.33;95177.56;4999420;28;20034;-60
2022/03/29 04:10:24;;;;;;;29.17;18.80;;;;;;;7.99;58.74;95237.25;5001151;28;20378;-61
2022/03/29 04:12:50;;;;;;;29.45;20.40;;;;;;;7.85;58.81;95222.50;4998253;28;20569;-62
2022/03/29 04:15:15;;;;;;;35.13;21.35;;;;;;;7.84;59.13;95231.13;5002596;28;20630;-63
2022/03/29 04:17:40;;;;;;;33.67;22.77;;;;;;;7.80;59.48;95229.59;5005628;28;20034;-60
2022/03/29 04:20:07;;;;;;;44.20;25.48;;;;;;;7.85;59.18;95227.63;5006648;28;20037;-62
2022/03/29 04:22:32;;;;;;;38.10;24.30;;;;;;;7.86;59.07;95228.47;5003831;28;20038;-63
2022/03/29 04:24:58;;;;;;;37.22;24.70;;;;;;;7.85;59.12;95229.38;4993513;28;20036;-65
2022/03/29 04:27:23;;;;;;;37.88;24.13;;;;;;;7.79;59.36;95237.38;4993162;28;20033;-65
2022/03/29 04:29:49;;;;;;;34.45;23.45;;;;;;;7.60;59.44;95212.59;5010616;28;20026;-62
2022/03/29 04:32:14;;;;;;;38.95;25.70;;;;;;;7.81;59.44;95230.44;5010855;28;20029;-61
2022/03/29 04:34:40;;;;;;;41.42;25.08;;;;;;;7.95;59.01;95235.72;4992489;28;20030;-60
2022/03/29 04:37:05;;;;;;;40.70;26.00;;;;;;;7.86;58.86;95203.63;4996549;28;20036;-62
2022/03/29 04:39:31;;;;;;;38.20;24.65;;;;;;;8.13;58.32;95228.84;5009247;28;20033;-63
2022/03/29 04:41:57;;;;;;;38.38;24.83;;;;;;;8.14;58.23;95215.09;5010535;28;20045;-61
2022/03/29 04:44:23;;;;;;;36.50;25.55;;;;;;;8.06;58.05;95194.91;5010229;28;20100;-61
2022/03/29 04:46:48;;;;;;;42.90;26.15;;;;;;;8.16;57.81;95213.28;5010033;28;20157;-61
2022/03/29 04:49:14;;;;;;;39.30;25.67;;;;;;;8.13;57.62;95226.25;5010493;28;20022;-62
2022/03/29 04:51:39;;;;;;;40.42;26.70;;;;;;;8.08;57.97;95226.53;5008371;28;20048;-61
2022/03/29 04:54:04;;;;;;;46.00;26.48;;;;;;;8.07;58.28;95224.03;5010354;28;20465;-61
2022/03/29 04:56:30;;;;;;;36.15;26.08;;;;;;;8.12;58.20;95226.34;5009181;28;20080;-60
2022/03/29 04:58:56;;;;;;;42.15;26.05;;;;;;;8.04;58.19;95198.50;5009646;28;20026;-62
2022/03/29 05:01:21;;;;;;;38.53;26.10;;;;;;;8.31;57.72;95224.50;5008566;28;20034;-61
2022/03/29 05:03:47;;;;;;;40.28;26.00;;;;;;;8.38;57.55;95228.44;5009833;28;20026;-60
2022/03/29 05:06:12;;;;;;;39.05;25.40;;;;;;;8.05;57.08;95159.03;5009482;28;20037;-61
2022/03/29 05:08:38;;;;;;;36.13;25.25;;;;;;;8.45;56.12;95204.13;5009488;28;20037;-62
2022/03/29 05:11:03;;;;;;;35.15;23.88;;;;;;;8.28;55.22;95176.69;5009565;28;20037;-62
2022/03/29 05:13:29;;;;;;;32.10;22.58;;;;;;;8.60;55.16;95215.34;5009932;28;20030;-61
2022/03/29 05:15:55;;;;;;;31.33;22.58;;;;;;;8.60;54.88;95207.63;5009206;28;20083;-60
2022/03/29 05:18:21;;;;;;;32.55;23.17;;;;;;;8.74;54.71;95219.78;5008900;28;20474;-60
2022/03/29 05:20:46;;;;;;;36.22;26.05;;;;;;;8.81;54.66;95220.28;5008986;28;20088;-62
2022/03/29 05:23:11;;;;;;;37.80;25.13;;;;;;;8.64;55.10;95183.44;5009441;28;20095;-60
2022/03/29 05:25:37;;;;;;;41.28;24.17;;;;;;;8.97;54.69;95221.13;5009306;28;20029;-61
2022/03/29 05:28:03;;;;;;;36.08;24.63;;;;;;;9.04;54.60;95218.22;5009561;28;20068;-61
2022/03/29 05:30:29;;;;;;;37.35;23.33;;;;;;;8.91;53.39;95180.28;5009101;28;20108;-60
2022/03/29 05:32:57;;;;;;;35.42;22.58;;;;;;;9.23;53.16;95218.06;5008978;28;20045;-64
2022/03/29 05:35:27;;;;;;;29.98;20.95;;;;;;;9.32;52.63;95208.09;5009162;28;20034;-64
2022/03/29 05:37:52;;;;;;;30.55;19.58;;;;;;;9.36;52.26;95198.44;5005689;28;20025;-61
2022/03/29 05:40:18;;;;;;;33.00;20.42;;;;;;;9.43;52.24;95217.81;4998265;28;20040;-61
2022/03/29 05:42:44;;;;;;;30.48;19.92;;;;;;;9.23;52.24;95180.31;5005497;28;20421;-62
2022/03/29 05:45:12;;;;;;;27.73;18.77;;;;;;;9.53;51.10;95215.53;5002559;28;20017;-63
2022/03/29 05:50:23;;;;;;;29.85;19.85;;;;;;;9.81;51.14;95207.09;5009231;28;20056;-63
2022/03/29 05:52:48;;;;;;;31.02;16.92;;;;;;;9.96;49.88;95213.09;5008910;28;20046;-62
2022/03/29 05:55:14;;;;;;;29.80;18.48;;;;;;;10.15;49.55;95212.88;5009290;28;20071;-62
2022/03/29 05:57:39;;;;;;;27.92;17.00;;;;;;;10.23;48.32;95209.84;5008440;28;20398;-65
2022/03/29 06:00:08;;;;;;;33.72;17.55;;;;;;;10.18;48.64;95198.97;5008829;28;20026;-61
2022/03/29 06:02:34;;;;;;;26.45;18.23;;;;;;;9.92;48.19;95162.69;5002237;28;20033;-62
2022/03/29 06:05:00;;;;;;;28.80;19.02;;;;;;;10.06;48.36;95173.00;4994988;28;20033;-62
2022/03/29 06:07:25;;;;;;;33.67;18.85;;;;;;;10.33;48.19;95211.00;4988212;28;20030;-61
2022/03/29 06:09:51;;;;;;;38.78;25.20;;;;;;;10.36;48.09;95191.94;4995371;28;20030;-62
2022/03/29 06:12:21;;;;;;;36.85;23.63;;;;;;;10.52;48.49;95205.56;4986374;28;20113;-64
2022/03/29 06:14:46;;;;;;;30.15;18.88;;;;;;;10.48;47.96;95168.03;4997355;28;20173;-64
2022/03/29 06:17:12;;;;;;;28.55;17.38;;;;;;;10.71;46.65;95189.84;4986123;28;20030;-64
2022/03/29 06:19:37;;;;;;;28.60;18.38;;;;;;;10.65;46.96;95159.25;4996947;28;20060;-61
2022/03/29 06:22:04;;;;;;;26.95;17.63;;;;;;;11.25;46.33;95196.00;4986051;28;20065;-60
2022/03/29 06:24:30;;;;;;;27.30;16.50;;;;;;;11.27;45.27;95170.94;4993936;28;20045;-61
2022/03/29 06:26:55;;;;;;;24.13;16.42;;;;;;;11.57;44.36;95199.13;4989244;28;20113;-61
2022/03/29 06:29:21;;;;;;;27.42;17.20;;;;;;;11.50;44.22;95164.31;4990368;28;20133;-63
2022/03/29 06:31:46;;;;;;;29.08;17.77;;;;;;;11.72;43.95;95167.16;4993124;28;20034;-68
2022/03/29 06:34:13;;;;;;;24.90;16.45;;;;;;;12.02;42.96;95188.50;5000355;28;20026;-64
2022/03/29 06:36:38;;;;;;;25.73;16.75;;;;;;;12.18;43.09;95176.22;4994312;28;20101;-66
2022/03/29 06:39:05;;;;;;;30.73;16.95;;;;;;;12.28;41.84;95176.44;4982974;28;20113;-61
2022/03/29 06:41:30;;;;;;;23.65;16.73;;;;;;;12.32;42.08;95186.47;4998038;28;20039;-64
2022/03/29 06:43:56;;;;;;;22.27;16.17;;;;;;;12.23;42.23;95148.34;5001725;28;20476;-64
2022/03/29 06:46:22;;;;;;;30.95;17.70;;;;;;;12.70;41.44;95179.63;5002200;28;20062;-61
2022/03/29 06:48:47;;;;;;;26.90;17.63;;;;;;;12.89;41.38;95186.97;4996107;28;20030;-63
2022/03/29 06:51:13;;;;;;;26.40;17.58;;;;;;;13.03;41.20;95175.63;5006764;28;20077;-61
2022/03/29 06:53:42;;;;;;;28.65;18.13;;;;;;;12.85;41.58;95136.34;5004226;28;20465;-61
2022/03/29 06:56:08;;;;;;;27.23;18.42;;;;;;;12.93;41.10;95138.41;5007842;28;20041;-63
2022/03/29 06:58:35;;;;;;;26.38;17.33;;;;;;;12.96;40.66;95138.19;5006575;28;20734;-61
2022/03/29 07:01:00;;;;;;;23.60;17.05;;;;;;;13.51;40.09;95174.88;5007853;28;20107;-60
2022/03/29 07:03:27;;;;;;;26.33;17.15;;;;;;;13.54;39.56;95159.94;5008043;28;20038;-60
2022/03/29 07:05:53;;;;;;;25.08;17.95;;;;;;;13.70;39.83;95171.78;5008135;28;20029;-64
2022/03/29 07:08:20;;;;;;;24.10;17.92;;;;;;;13.89;39.36;95164.31;5003956;28;20472;-64
2022/03/29 07:13:31;;;;;;;27.60;17.65;;;;;;;13.80;38.41;95139.06;5003511;28;20072;-62
2022/03/29 07:15:56;;;;;;;21.73;16.67;;;;;;;13.98;38.13;95142.06;5006267;28;20521;-62
2022/03/29 07:18:22;;;;;;;24.83;16.70;;;;;;;14.10;37.51;95129.94;5006849;28;20168;-63
2022/03/29 07:20:47;;;;;;;24.08;16.13;;;;;;;14.43;37.21;95149.91;5007289;28;20041;-62
2022/03/29 07:23:12;;;;;;;24.00;15.75;;;;;;;14.56;37.04;95155.00;5003237;28;20034;-62
2022/03/29 07:25:38;;;;;;;21.90;15.50;;;;;;;14.72;35.61;95162.44;5013506;28;20156;-59
2022/03/29 07:28:05;;;;;;;21.23;14.50;;;;;;;14.94;35.87;95156.41;5012936;28;20021;-63
2022/03/29 07:30:34;;;;;;;22.10;15.73;;;;;;;15.11;35.24;95146.47;5009146;28;20499;-61
2022/03/29 07:32:59;;;;;;;24.98;16.95;;;;;;;15.21;35.19;95129.22;5007417;28;20026;-62
2022/03/29 07:35:28;;;;;;;24.23;15.77;;;;;;;15.39;35.31;95140.72;5007385;28;20044;-63
2022/03/29 07:37:54;;;;;;;25.13;17.23;;;;;;;15.44;34.75;95101.38;5008162;28;20026;-61
2022/03/29 07:40:24;;;;;;;27.17;17.52;;;;;;;15.82;34.27;95133.84;5006561;28;20398;-62
2022/03/29 07:42:50;;;;;;;29.15;16.27;;;;;;;15.99;34.00;95135.06;5006420;28;20653;-63
2022/03/29 07:45:16;;;;;;;23.27;15.45;;;;;;;16.06;33.22;95098.97;5006803;28;20084;-61
2022/03/29 07:47:43;;;;;;;31.60;21.33;;;;;;;16.20;33.24;95129.03;5003173;28;20018;-63
2022/03/29 07:50:11;;;;;;;19.88;13.73;;;;;;;15.75;33.28;95114.47;5017377;28;20022;-62
2022/03/29 07:52:39;;;;;;;22.10;14.13;;;;;;;16.04;33.26;95111.28;5023560;28;20228;-63
2022/03/29 07:55:07;;;;;;;21.67;13.27;;;;;;;16.32;32.72;95122.81;5003467;28;20474;-61
2022/03/29 07:57:33;;;;;;;27.20;15.90;;;;;;;16.45;32.18;95117.41;4993531;28;20117;-61
2022/03/29 07:59:59;;;;;;;26.38;15.63;;;;;;;16.33;32.40;95069.78;5006144;28;20109;-59
2022/03/29 08:02:25;;;;;;;18.30;12.18;;;;;;;16.12;32.74;95119.28;4994445;28;20034;-60
2022/03/29 08:04:50;;;;;;;21.00;11.95;;;;;;;16.46;32.06;95114.66;5001393;28;20022;-61
2022/03/29 08:07:16;;;;;;;23.40;12.75;;;;;;;16.53;31.78;95083.72;5009960;28;20030;-62
2022/03/29 08:09:42;;;;;;;16.95;12.38;;;;;;;16.70;31.12;95097.88;5017415;28;20038;-61
2022/03/29 08:12:08;;;;;;;16.70;9.13;;;;;;;15.18;32.93;95052.38;5007534;28;20567;-62
2022/03/29 08:14:33;;;;;;;16.42;10.05;;;;;;;15.91;32.93;95104.50;5010746;28;20507;-61
2022/03/29 08:16:59;;;;;;;15.82;8.80;;;;;;;15.27;32.15;94993.66;5009992;28;20022;-61
2022/03/29 08:19:25;;;;;;;16.80;8.27;;;;;;;15.76;31.85;95045.97;4990695;28;20494;-62
2022/03/29 08:21:52;;;;;;;19.17;8.52;;;;;;;15.59;33.00;95086.31;4990324;28;20057;-61
2022/03/29 08:24:23;;;;;;;20.08;10.85;;;;;;;16.16;32.45;95092.84;4996999;28;20088;-61
2022/03/29 08:26:51;;;;;;;12.63;7.80;;;;;;;16.39;31.75;95077.09;5010507;28;20025;-62
2022/03/29 08:29:21;;;;;;;15.10;7.82;;;;;;;16.56;31.42;95088.69;5010280;28;20856;-60
2022/03/29 08:31:49;;;;;;;10.98;6.28;;;;;;;16.41;30.55;95069.16;5010406;28;20029;-60
2022/03/29 08:34:16;;;;;;;21.67;7.10;;;;;;;16.42;30.58;95060.41;5008723;28;20537;-62
2022/03/29 08:36:42;;;;;;;11.30;5.55;;;;;;;16.32;30.39;95029.13;4996010;28;20096;-62
2022/03/29 08:39:08;;;;;;;10.65;4.80;;;;;;;16.30;30.84;95077.88;4995022;28;20477;-64
2022/03/29 08:41:45;;;;;;;11.48;5.97;;;;;;;15.68;31.64;95066.56;5010298;28;20045;-64
2022/03/29 08:44:11;;;;;;;12.48;7.95;;;;;;;16.12;31.12;95055.06;5008885;28;20513;-62
2022/03/29 08:46:38;;;;;;;10.50;6.05;;;;;;;16.20;30.64;95056.19;5001777;28;20038;-61
2022/03/29 08:49:08;;;;;;;11.07;6.95;;;;;;;15.98;31.40;95022.41;4996503;28;20049;-62
2022/03/29 08:51:38;;;;;;;15.35;7.07;;;;;;;16.99;30.01;95050.31;5009814;28;20858;-62
2022/03/29 08:54:05;;;;;;;10.02;5.70;;;;;;;17.03;29.90;95044.66;5009490;28;20034;-65
2022/03/29 08:56:31;;;;;;;10.63;6.53;;;;;;;16.94;29.29;95029.03;5006997;28;20033;-65
2022/03/29 08:58:56;;;;;;;12.00;6.20;;;;;;;17.33;28.95;95034.25;5009166;28;20030;-62
2022/03/29 09:01:23;;;;;;;14.00;7.00;;;;;;;16.83;29.14;94975.25;5009524;28;20372;-62
2022/03/29 09:04:09;;;;;;;13.73;6.63;;;;;;;17.75;28.33;95021.72;5009521;28;20026;-64
2022/03/29 09:06:50;;;;;;;14.27;6.80;;;;;;;17.92;28.56;95025.44;5008228;28;20096;-62
2022/03/29 09:09:22;;;;;;;22.88;10.07;;;;;;;18.77;27.59;95025.31;5007870;28;20080;-62
2022/03/29 09:11:47;;;;;;;10.90;6.20;;;;;;;20.83;24.55;95004.06;5009522;28;20040;-63
2022/03/29 09:14:13;;;;;;;17.50;8.25;;;;;;;21.80;23.75;95003.50;5008455;28;20434;-62
2022/03/29 09:16:38;;;;;;;10.73;7.22;;;;;;;21.38;24.08;95004.47;5007887;28;20578;-62
2022/03/29 09:19:04;;;;;;;13.68;7.85;;;;;;;22.61;21.94;94998.19;5009140;28;20370;-65
2022/03/29 09:21:42;;;;;;;16.30;8.20;;;;;;;24.27;20.72;94989.72;5008930;28;20034;-63
2022/03/29 09:24:14;;;;;;;13.82;7.72;;;;;;;25.67;19.56;94977.25;5009398;28;20034;-65
2022/03/29 09:26:47;;;;;;;11.40;7.00;;;;;;;23.75;20.32;94983.44;5009126;28;20073;-65
2022/03/29 09:29:20;;;;;;;13.88;6.95;;;;;;;23.30;20.46;94993.03;5009716;28;20114;-60
2022/03/29 09:31:48;;;;;;;16.95;7.40;;;;;;;24.31;19.17;94976.97;5009313;28;20421;-63
2022/03/29 09:34:21;;;;;;;13.23;7.68;;;;;;;25.68;18.18;94974.41;5008907;28;20037;-62
2022/03/29 09:36:48;;;;;;;13.05;7.63;;;;;;;22.69;20.82;94982.38;5009292;28;20117;-65
2022/03/29 09:39:38;;;;;;;15.20;7.72;;;;;;;20.93;23.39;94985.56;5008100;28;20600;-64
2022/03/29 09:42:12;;;;;;;13.38;7.35;;;;;;;19.55;24.51;94962.03;5009483;28;20422;-63
2022/03/29 09:44:44;;;;;;;16.00;9.80;;;;;;;20.49;23.63;94981.31;5008630;28;20022;-67
2022/03/29 09:47:13;;;;;;;13.43;7.03;;;;;;;20.46;23.91;94967.72;5008260;28;20034;-64
2022/03/29 09:50:11;;;;;;;15.75;7.00;;;;;;;19.96;24.13;94970.13;5008945;28;20033;-67
2022/03/29 09:52:43;;;;;;;11.32;6.60;;;;;;;19.92;24.39;94976.69;5005813;28;20117;-66
2022/03/29 09:55:21;;;;;;;14.27;6.50;;;;;;;19.47;24.63;94943.66;4993008;28;20042;-63
2022/03/29 09:57:51;;;;;;;12.52;7.95;;;;;;;20.42;23.88;94969.03;4986157;28;20117;-65
2022/03/29 10:00:32;;;;;;;16.85;8.05;;;;;;;21.44;23.18;94964.47;4986398;28;20439;-61
2022/03/29 10:02:58;;;;;;;10.48;6.50;;;;;;;20.25;24.33;94932.31;4986592;28;20057;-65
2022/03/29 10:05:25;;;;;;;12.43;6.78;;;;;;;22.03;22.37;94954.53;4985975;28;20453;-67
2022/03/29 10:10:47;;;;;;;13.38;5.55;;;;;;;22.08;20.64;94950.59;5003339;28;20033;-64
2022/03/29 10:13:13;;;;;;;11.65;7.07;;;;;;;23.85;20.06;94943.72;5005878;28;20038;-66
2022/03/29 10:15:41;;;;;;;13.65;6.85;;;;;;;25.32;18.92;94932.28;5005354;28;20473;-65
2022/03/29 10:18:07;;;;;;;13.52;6.15;;;;;;;26.59;17.65;94907.44;5005806;28;20033;-69
2022/03/29 10:20:34;;;;;;;11.88;6.55;;;;;;;26.21;17.57;94939.63;5005299;28;20520;-62
2022/03/29 10:23:00;;;;;;;16.73;7.25;;;;;;;25.85;17.94;94935.31;5005358;28;20030;-64
2022/03/29 10:25:26;;;;;;;12.68;6.63;;;;;;;24.02;19.47;94915.41;5005141;28;20040;-64
2022/03/29 10:27:56;;;;;;;13.57;6.78;;;;;;;21.80;22.33;94924.75;4999309;28;20038;-66
2022/03/29 10:30:47;;;;;;;16.58;7.07;;;;;;;26.04;18.05;94909.25;4987776;28;20473;-65
2022/03/29 10:33:19;;;;;;;15.02;7.80;;;;;;;27.34;16.42;94911.91;4986547;28;20042;-64
2022/03/29 10:36:09;;;;;;;14.40;7.63;;;;;;;30.01;14.49;94910.66;4988903;28;20108;-66
2022/03/29 10:38:47;;;;;;;20.95;8.50;;;;;;;31.94;13.24;94909.00;4987143;28;20122;-65
2022/03/29 10:41:31;;;;;;;13.52;7.30;;;;;;;31.30;12.71;94916.81;5008145;28;20493;-67
2022/03/29 10:44:10;;;;;;;15.10;8.18;;;;;;;33.18;11.79;94892.81;5008082;28;20037;-67
2022/03/29 10:46:41;;;;;;;12.45;6.53;;;;;;;31.93;12.01;94902.06;5005787;28;20469;-63
2022/03/29 10:49:20;;;;;;;15.20;7.22;;;;;;;31.12;12.92;94904.41;5007238;28;20032;-67
2022/03/29 10:51:57;;;;;;;13.60;5.50;;;;;;;29.21;13.86;94905.22;5007905;28;20049;-65
2022/03/29 10:54:27;;;;;;;15.98;7.38;;;;;;;30.55;13.44;94900.25;5000468;28;20030;-66
2022/03/29 10:57:25;;;;;;;13.48;7.00;;;;;;;30.72;13.25;94891.63;5004435;28;20057;-68
2022/03/29 11:00:11;;;;;;;13.45;6.38;;;;;;;30.92;12.92;94888.69;5002666;28;20060;-65
2022/03/29 11:02:37;;;;;;;16.80;7.07;;;;;;;31.66;12.79;94880.41;5003464;28;20042;-66
2022/03/29 11:05:04;;;;;;;15.75;7.35;;;;;;;32.72;11.88;94879.44;5004824;28;20018;-66
2022/03/29 11:07:35;;;;;;;12.80;7.55;;;;;;;32.33;11.92;94845.31;5004767;28;20026;-64
2022/03/29 11:10:10;;;;;;;16.60;6.97;;;;;;;31.80;11.82;94878.31;4999078;28;20034;-64
2022/03/29 11:12:36;;;;;;;12.73;6.22;;;;;;;30.78;12.50;94872.91;4998554;28;20038;-63
2022/03/29 11:15:24;;;;;;;16.35;6.95;;;;;;;31.23;12.36;94860.19;4998128;28;20497;-65
2022/03/29 11:17:55;;;;;;;11.05;6.25;;;;;;;30.73;12.33;94867.47;5001065;28;20405;-63
2022/03/29 11:20:34;;;;;;;10.70;5.90;;;;;;;27.85;14.85;94865.38;5001327;28;20045;-62
2022/03/29 11:23:10;;;;;;;15.55;6.35;;;;;;;28.19;14.63;94842.28;5000292;28;20034;-62
2022/03/29 11:25:47;;;;;;;8.52;3.95;;;;;;;26.47;16.17;94864.09;4999188;28;20023;-67
2022/03/29 11:28:15;;;;;;;9.27;5.93;;;;;;;27.41;15.12;94820.03;4998531;28;20180;-63
2022/03/29 11:30:41;;;;;;;11.57;6.10;;;;;;;27.69;15.85;94825.09;5000527;28;20030;-66
2022/03/29 11:33:08;;;;;;;11.93;5.47;;;;;;;26.45;16.10;94850.25;4996310;28;20030;-67
2022/03/29 11:35:35;;;;;;;9.85;6.55;;;;;;;27.25;16.03;94849.56;5002711;28;20112;-65